Time;durP1;ratioP1;P1;durP2;ratioP2;P2;SDS_P1;SDS_P2;PMS_P1;PMS_P2;Temp;Humidity;BMP_temperature;BMP_pressure;BME280_temperature;BME280_humidity;BME280_pressure;Samples;Min_cycle;Max_cycle;Signal;HPM_P1;HPM_P2
2021/09/20 00:00:33;;;;;;;7.20;6.60;;;;;;;17.48;80.29;96300.84;4976639;28;20516;-54
2021/09/20 00:02:58;;;;;;;5.90;5.40;;;;;;;17.40;80.63;96307.47;4976737;28;20209;-53
2021/09/20 00:05:24;;;;;;;6.57;6.00;;;;;;;17.37;80.86;96301.91;4977000;28;20863;-53
2021/09/20 00:07:49;;;;;;;6.93;6.33;;;;;;;17.32;80.77;96305.34;4977167;28;20257;-59
2021/09/20 00:10:15;;;;;;;6.57;6.07;;;;;;;17.35;80.79;96298.72;4977115;28;20177;-59
2021/09/20 00:12:41;;;;;;;8.37;5.90;;;;;;;17.34;80.66;96303.22;4976688;28;20613;-53
2021/09/20 00:15:08;;;;;;;6.60;6.00;;;;;;;17.33;80.93;96296.31;4976561;28;20665;-53
2021/09/20 00:17:34;;;;;;;6.40;5.57;;;;;;;17.30;80.83;96299.50;4976753;28;20607;-53
2021/09/20 00:20:00;;;;;;;6.70;6.07;;;;;;;17.33;81.03;96292.88;4976911;28;20513;-53
2021/09/20 00:22:25;;;;;;;6.83;6.27;;;;;;;17.42;80.53;96291.25;4976890;28;20413;-60
2021/09/20 00:24:50;;;;;;;7.13;6.53;;;;;;;17.57;80.25;96288.59;4976352;28;20194;-53
2021/09/20 00:27:16;;;;;;;7.87;6.90;;;;;;;17.59;79.68;96289.13;4976803;28;20258;-53
2021/09/20 00:29:41;;;;;;;7.40;6.70;;;;;;;17.52;79.52;96301.88;4976673;28;20712;-59
2021/09/20 00:32:07;;;;;;;7.07;6.37;;;;;;;17.20;80.73;96304.84;4976267;28;20181;-53
2021/09/20 00:34:32;;;;;;;7.53;6.93;;;;;;;17.12;81.10;96307.25;4976176;28;20252;-59
2021/09/20 00:36:58;;;;;;;7.17;6.47;;;;;;;17.03;81.81;96303.56;4975957;28;20214;-53
2021/09/20 00:39:23;;;;;;;8.30;7.20;;;;;;;17.04;81.87;96313.91;4976465;28;20205;-53
2021/09/20 00:41:49;;;;;;;10.50;6.33;;;;;;;17.02;81.87;96307.25;4976648;28;20513;-59
2021/09/20 00:44:14;;;;;;;6.60;5.87;;;;;;;17.05;81.47;96312.81;4975983;28;20502;-59
2021/09/20 00:46:40;;;;;;;7.07;6.30;;;;;;;17.02;82.26;96312.56;4976403;28;20198;-53
2021/09/20 00:49:05;;;;;;;7.30;6.57;;;;;;;17.12;81.89;96315.22;4976277;28;20170;-53
2021/09/20 00:51:30;;;;;;;9.70;7.10;;;;;;;17.18;81.85;96311.47;4975995;28;20178;-59
2021/09/20 00:53:56;;;;;;;6.97;6.37;;;;;;;17.15;82.03;96304.88;4975786;28;20670;-53
2021/09/20 00:56:22;;;;;;;8.10;7.40;;;;;;;17.20;81.30;96306.69;4976177;28;20193;-53
2021/09/20 00:58:48;;;;;;;7.13;6.53;;;;;;;17.01;82.35;96309.09;4975645;28;20557;-53
2021/09/20 01:01:13;;;;;;;7.47;6.77;;;;;;;16.99;83.01;96313.09;4976163;28;20174;-53
2021/09/20 01:03:39;;;;;;;7.57;6.87;;;;;;;17.09;82.49;96310.44;4975749;28;20735;-59
2021/09/20 01:06:05;;;;;;;8.50;7.80;;;;;;;17.08;81.87;96314.16;4976022;28;20557;-59
2021/09/20 01:08:30;;;;;;;7.70;7.00;;;;;;;17.07;82.21;96312.56;4975284;28;20174;-59
2021/09/20 01:10:56;;;;;;;7.77;6.67;;;;;;;17.07;82.43;96316.00;4975581;28;20236;-59
2021/09/20 01:13:21;;;;;;;7.00;6.30;;;;;;;17.11;82.35;96316.28;4974995;28;20525;-59
2021/09/20 01:15:47;;;;;;;7.10;6.50;;;;;;;17.09;82.73;96318.38;4976122;28;20205;-54
2021/09/20 01:18:12;;;;;;;8.00;6.77;;;;;;;17.18;82.24;96319.44;4975608;28;20284;-53
2021/09/20 01:20:37;;;;;;;9.10;7.10;;;;;;;17.20;81.52;96319.97;4975704;28;20575;-53
2021/09/20 01:23:04;;;;;;;6.87;6.27;;;;;;;17.13;81.93;96325.56;4975061;28;20638;-53
2021/09/20 01:25:30;;;;;;;8.60;6.63;;;;;;;17.15;81.84;96323.44;4975495;28;20217;-59
2021/09/20 01:27:56;;;;;;;6.70;6.10;;;;;;;17.05;82.37;96325.28;4975613;28;20402;-54
2021/09/20 01:30:22;;;;;;;7.23;6.57;;;;;;;17.07;82.46;96318.66;4975439;28;20872;-53
2021/09/20 01:32:48;;;;;;;6.93;6.23;;;;;;;17.16;81.72;96316.25;4975127;28;20166;-53
2021/09/20 01:35:17;;;;;;;8.90;6.73;;;;;;;16.97;82.84;96320.53;4975547;28;20448;-53
2021/09/20 01:37:42;;;;;;;7.30;6.70;;;;;;;16.89;82.76;96327.16;4974962;28;20464;-59
2021/09/20 01:40:08;;;;;;;8.10;7.27;;;;;;;16.99;82.38;96318.41;4975478;28;20414;-53
2021/09/20 01:42:34;;;;;;;6.67;6.07;;;;;;;16.89;83.28;96321.06;4975326;28;20170;-58
2021/09/20 01:44:59;;;;;;;6.87;6.17;;;;;;;16.84;83.29;96321.06;4974907;28;20480;-59
2021/09/20 01:47:25;;;;;;;7.07;6.27;;;;;;;16.81;83.65;96322.41;4975257;28;20581;-59
2021/09/20 01:49:50;;;;;;;6.43;5.80;;;;;;;16.88;83.16;96322.94;4975158;28;20202;-59
2021/09/20 01:52:16;;;;;;;6.03;5.50;;;;;;;16.85;83.29;96323.44;4974834;28;20173;-59
2021/09/20 01:54:42;;;;;;;6.50;5.30;;;;;;;16.85;83.43;96328.75;4974812;28;20222;-59
2021/09/20 01:57:07;;;;;;;7.20;6.33;;;;;;;16.88;83.53;96327.44;4975058;28;20256;-53
2021/09/20 01:59:32;;;;;;;7.23;6.30;;;;;;;16.91;83.38;96326.91;4975214;28;20166;-59
2021/09/20 02:01:58;;;;;;;7.80;6.57;;;;;;;16.92;82.98;96329.28;4974958;28;20271;-53
2021/09/20 02:04:23;;;;;;;7.77;6.97;;;;;;;16.96;82.77;96318.94;4974409;28;20170;-59
2021/09/20 02:06:48;;;;;;;11.30;6.50;;;;;;;16.91;82.84;96325.06;4974599;28;20232;-52
2021/09/20 02:09:14;;;;;;;7.10;6.50;;;;;;;16.90;82.38;96327.97;4973794;28;20178;-53
2021/09/20 02:11:40;;;;;;;7.00;6.40;;;;;;;16.90;82.84;96326.13;4974887;28;20257;-59
2021/09/20 02:14:05;;;;;;;9.90;6.43;;;;;;;16.92;82.58;96325.84;4974548;28;20257;-54
2021/09/20 02:16:31;;;;;;;7.87;7.07;;;;;;;17.02;82.36;96333.81;4974825;28;20198;-59
2021/09/20 02:18:57;;;;;;;7.47;6.80;;;;;;;17.03;81.79;96330.09;4974678;28;20619;-53
2021/09/20 02:21:22;;;;;;;6.90;6.10;;;;;;;16.90;82.46;96330.63;4974057;28;20274;-59
2021/09/20 02:23:48;;;;;;;7.60;6.90;;;;;;;16.86;82.58;96338.31;4974455;28;20170;-60
2021/09/20 02:26:13;;;;;;;8.37;6.53;;;;;;;17.01;81.78;96334.88;4974519;28;20186;-53
2021/09/20 02:28:38;;;;;;;6.77;6.17;;;;;;;16.85;82.56;96338.59;4974539;28;20217;-60
2021/09/20 02:31:06;;;;;;;6.80;6.10;;;;;;;16.76;83.31;96340.97;4974623;28;20170;-59
2021/09/20 02:33:33;;;;;;;6.87;6.20;;;;;;;16.85;83.23;96343.91;4974162;28;20587;-53
2021/09/20 02:35:58;;;;;;;6.60;6.10;;;;;;;16.82;83.51;96339.09;4974323;28;20445;-59
2021/09/20 02:38:24;;;;;;;7.20;6.50;;;;;;;16.81;83.19;96341.00;4974452;28;20825;-53
2021/09/20 02:40:50;;;;;;;8.30;7.20;;;;;;;16.87;83.00;96337.25;4974425;28;20174;-53
2021/09/20 02:43:15;;;;;;;7.77;7.03;;;;;;;16.94;82.93;96331.69;4974117;28;20166;-59
2021/09/20 02:45:41;;;;;;;6.73;6.13;;;;;;;17.03;82.42;96335.41;4974922;28;20277;-53
2021/09/20 02:48:06;;;;;;;7.97;7.27;;;;;;;17.05;82.10;96331.41;4974524;28;20537;-59
2021/09/20 02:50:33;;;;;;;7.90;7.20;;;;;;;17.09;81.68;96326.34;4974023;28;20198;-53
2021/09/20 02:52:58;;;;;;;7.37;6.67;;;;;;;17.11;81.54;96326.88;4974161;28;20228;-54
2021/09/20 02:55:24;;;;;;;7.90;7.03;;;;;;;17.11;81.37;96324.25;4974270;28;20437;-54
2021/09/20 02:57:49;;;;;;;7.97;6.90;;;;;;;17.15;80.83;96325.31;4974341;28;20527;-53
2021/09/20 03:00:15;;;;;;;7.97;7.27;;;;;;;17.10;81.12;96322.66;4974510;28;20170;-59
2021/09/20 03:02:41;;;;;;;8.03;7.30;;;;;;;17.04;81.51;96329.03;4974426;28;20624;-53
2021/09/20 03:05:07;;;;;;;8.20;7.40;;;;;;;17.01;81.58;96324.25;4972720;28;20285;-59
2021/09/20 03:07:33;;;;;;;7.70;7.00;;;;;;;17.02;81.43;96316.03;4974407;28;20187;-53
2021/09/20 03:09:58;;;;;;;8.20;7.40;;;;;;;16.92;81.96;96331.94;4974396;28;20421;-53
2021/09/20 03:12:24;;;;;;;8.23;7.33;;;;;;;16.97;82.09;96337.28;4974175;28;20526;-59
2021/09/20 03:14:49;;;;;;;7.63;6.90;;;;;;;16.98;81.74;96333.53;4973770;28;20268;-59
2021/09/20 03:17:14;;;;;;;8.30;7.50;;;;;;;16.97;81.38;96329.31;4974161;28;20206;-53
2021/09/20 03:19:40;;;;;;;9.40;8.20;;;;;;;17.05;80.96;96330.59;4974050;28;20178;-53
2021/09/20 03:22:05;;;;;;;9.77;7.80;;;;;;;16.94;81.59;96337.78;4974290;28;20545;-53
2021/09/20 03:24:31;;;;;;;7.33;6.63;;;;;;;16.85;82.26;96333.28;4973591;28;20182;-59
2021/09/20 03:26:57;;;;;;;8.90;7.43;;;;;;;16.87;82.37;96333.78;4974336;28;20178;-53
2021/09/20 03:29:22;;;;;;;8.43;7.50;;;;;;;16.76;82.46;96335.66;4974084;28;20236;-59
2021/09/20 03:31:48;;;;;;;7.97;7.27;;;;;;;16.80;82.77;96336.72;4974201;28;20178;-59
2021/09/20 03:34:14;;;;;;;9.70;7.10;;;;;;;16.93;82.05;96327.44;4976971;28;20370;-54
2021/09/20 03:36:40;;;;;;;7.23;6.53;;;;;;;16.97;81.88;96333.81;4977482;28;20528;-60
2021/09/20 03:39:05;;;;;;;8.67;7.87;;;;;;;17.03;81.25;96333.53;4977582;28;20205;-54
2021/09/20 03:41:31;;;;;;;7.60;6.90;;;;;;;16.93;82.25;96335.41;4977393;28;20181;-53
2021/09/20 03:43:57;;;;;;;8.13;7.33;;;;;;;17.00;81.47;96328.75;4977306;28;20676;-59
2021/09/20 03:46:22;;;;;;;8.40;7.30;;;;;;;17.00;81.41;96336.72;4977531;28;20194;-59
2021/09/20 03:48:48;;;;;;;8.17;7.37;;;;;;;17.04;81.39;96342.31;4977380;28;20166;-53
2021/09/20 03:51:13;;;;;;;7.70;7.00;;;;;;;17.05;81.58;96339.38;4977002;28;20570;-59
2021/09/20 03:53:39;;;;;;;8.20;7.40;;;;;;;17.04;81.43;96342.31;4976964;28;20178;-59
2021/09/20 03:56:05;;;;;;;8.17;7.37;;;;;;;16.98;81.61;96341.50;4977011;28;20196;-59
2021/09/20 03:58:30;;;;;;;7.50;6.80;;;;;;;17.03;81.78;96336.19;4977100;28;20213;-59
2021/09/20 04:00:56;;;;;;;8.00;7.20;;;;;;;17.06;81.52;96334.88;4977156;28;20573;-53
2021/09/20 04:03:21;;;;;;;9.03;7.57;;;;;;;17.12;81.21;96334.59;4976729;28;20178;-59
2021/09/20 04:05:47;;;;;;;7.70;7.00;;;;;;;17.12;81.12;96333.81;4976770;28;20296;-53
2021/09/20 04:08:15;;;;;;;9.03;8.13;;;;;;;17.10;81.03;96346.56;4977146;28;20174;-54
2021/09/20 04:10:42;;;;;;;9.03;8.13;;;;;;;17.10;80.61;96349.97;4976919;28;20181;-59
2021/09/20 04:13:07;;;;;;;9.27;7.83;;;;;;;17.05;81.23;96349.19;4976725;28;20422;-53
2021/09/20 04:15:32;;;;;;;8.13;7.33;;;;;;;17.07;81.04;96344.41;4976896;28;20428;-60
2021/09/20 04:17:58;;;;;;;7.93;7.20;;;;;;;17.11;80.92;96338.31;4976827;28;20560;-60
2021/09/20 04:20:23;;;;;;;8.50;7.37;;;;;;;17.11;81.16;96346.28;4976695;28;20231;-59
2021/09/20 04:22:48;;;;;;;8.60;7.80;;;;;;;17.15;80.85;96347.34;4976595;28;20544;-59
2021/09/20 04:25:14;;;;;;;8.07;7.30;;;;;;;17.12;80.92;96345.22;4976567;28;20229;-59
2021/09/20 04:27:39;;;;;;;8.17;7.37;;;;;;;17.18;80.62;96353.97;4977000;28;20266;-53
2021/09/20 04:30:06;;;;;;;7.53;6.83;;;;;;;17.15;80.93;96349.19;4976687;28;20249;-53
2021/09/20 04:32:31;;;;;;;7.73;6.93;;;;;;;17.17;81.13;96341.78;4976691;28;20305;-53
2021/09/20 04:34:57;;;;;;;8.27;7.50;;;;;;;17.23;80.68;96351.31;4976076;28;20877;-53
2021/09/20 04:37:22;;;;;;;8.87;7.97;;;;;;;17.19;80.83;96350.25;4976305;28;20206;-53
2021/09/20 04:39:47;;;;;;;8.93;7.43;;;;;;;17.19;80.89;96347.59;4976623;28;20188;-59
2021/09/20 04:42:13;;;;;;;8.03;7.00;;;;;;;17.13;81.03;96357.44;4975976;28;20178;-57
2021/09/20 04:44:39;;;;;;;6.90;6.20;;;;;;;17.17;81.26;96357.69;4975229;28;20720;-53
2021/09/20 04:47:05;;;;;;;7.50;6.80;;;;;;;17.19;81.08;96360.88;4976325;28;20186;-59
2021/09/20 04:49:30;;;;;;;8.03;6.40;;;;;;;17.04;81.69;96364.34;4976390;28;20171;-59
2021/09/20 04:51:55;;;;;;;8.17;7.33;;;;;;;17.02;81.95;96365.66;4976409;28;20178;-57
2021/09/20 04:54:21;;;;;;;7.43;6.80;;;;;;;17.12;81.87;96371.00;4975668;28;20584;-59
2021/09/20 04:56:46;;;;;;;7.77;6.90;;;;;;;17.12;81.72;96377.06;4976299;28;20634;-53
2021/09/20 04:59:12;;;;;;;9.00;7.20;;;;;;;17.12;82.08;96371.00;4975974;28;20174;-59
2021/09/20 05:01:38;;;;;;;6.80;6.23;;;;;;;17.20;81.44;96381.06;4976021;28;20212;-59
2021/09/20 05:04:03;;;;;;;7.80;7.00;;;;;;;17.20;81.33;96376.56;4975662;28;20261;-59
2021/09/20 05:06:29;;;;;;;9.83;7.47;;;;;;;17.15;81.72;96383.72;4975998;28;20532;-59
2021/09/20 05:08:54;;;;;;;8.00;7.30;;;;;;;17.15;81.45;96376.56;4975991;28;20174;-59
2021/09/20 05:11:20;;;;;;;8.70;7.90;;;;;;;17.15;81.61;96381.06;4976022;28;20236;-53
2021/09/20 05:13:45;;;;;;;7.30;6.70;;;;;;;17.22;81.17;96382.41;4975304;28;20175;-53
2021/09/20 05:16:10;;;;;;;8.00;7.00;;;;;;;17.18;81.58;96380.53;4975682;28;20202;-53
2021/09/20 05:18:36;;;;;;;7.97;7.27;;;;;;;17.22;81.12;96378.94;4975461;28;20212;-53
2021/09/20 05:21:01;;;;;;;8.00;7.20;;;;;;;17.15;81.95;96381.88;4975498;28;20190;-53
2021/09/20 05:23:27;;;;;;;8.37;6.93;;;;;;;17.12;82.63;96381.59;4974974;28;20181;-59
2021/09/20 05:25:52;;;;;;;7.70;7.00;;;;;;;17.14;82.58;96390.06;4975484;28;20198;-53
2021/09/20 05:28:18;;;;;;;7.90;7.20;;;;;;;17.15;82.79;96381.06;4975923;28;20177;-59
2021/09/20 05:30:43;;;;;;;8.10;7.30;;;;;;;17.18;82.56;96386.63;4975715;28;20174;-54
2021/09/20 05:33:08;;;;;;;9.30;6.87;;;;;;;17.25;82.11;96384.50;4975283;28;20185;-59
2021/09/20 05:35:34;;;;;;;8.90;8.00;;;;;;;17.28;81.80;96391.16;4975428;28;20201;-59
2021/09/20 05:37:59;;;;;;;8.70;7.70;;;;;;;17.22;82.31;96389.56;4974984;28;20225;-59
2021/09/20 05:40:25;;;;;;;10.23;8.47;;;;;;;17.24;82.54;96395.41;4974995;28;20182;-53
2021/09/20 05:42:56;;;;;;;10.47;9.30;;;;;;;17.28;82.46;96393.81;4975192;28;20234;-59
2021/09/20 05:45:22;;;;;;;10.23;9.17;;;;;;;17.34;81.97;96396.19;4975274;28;20228;-53
2021/09/20 05:47:47;;;;;;;11.47;9.70;;;;;;;17.38;81.85;96401.75;4975367;28;20826;-53
2021/09/20 05:50:13;;;;;;;9.97;8.97;;;;;;;17.23;82.67;96402.56;4974638;28;20433;-53
2021/09/20 05:52:38;;;;;;;11.17;9.30;;;;;;;17.30;82.72;96399.66;4974720;28;20205;-54
2021/09/20 05:55:04;;;;;;;10.20;8.30;;;;;;;17.26;83.15;96401.25;4974652;28;20556;-59
2021/09/20 05:57:30;;;;;;;11.07;9.53;;;;;;;17.33;83.13;96409.75;4975013;28;20206;-59
2021/09/20 05:59:55;;;;;;;12.27;10.50;;;;;;;17.36;83.07;96406.53;4975212;28;20424;-53
2021/09/20 06:02:20;;;;;;;9.20;8.30;;;;;;;17.43;82.34;96407.06;4975228;28;20193;-59
2021/09/20 06:04:46;;;;;;;10.03;8.73;;;;;;;17.36;82.45;96417.16;4974526;28;20198;-59
2021/09/20 06:07:11;;;;;;;9.40;8.50;;;;;;;17.40;81.58;96408.41;4974794;28;20170;-59
2021/09/20 06:09:37;;;;;;;10.83;9.47;;;;;;;17.34;82.35;96414.78;4974925;28;20817;-53
2021/09/20 06:12:03;;;;;;;8.80;8.00;;;;;;;17.31;82.34;96419.84;4975089;28;20260;-53
2021/09/20 06:14:29;;;;;;;9.23;8.37;;;;;;;17.36;82.09;96417.16;4974503;28;20204;-59
2021/09/20 06:16:55;;;;;;;8.63;7.83;;;;;;;17.45;81.60;96418.22;4974829;28;20500;-53
2021/09/20 06:19:20;;;;;;;9.37;7.90;;;;;;;17.39;82.19;96424.63;4974970;28;20464;-53
2021/09/20 06:21:46;;;;;;;9.27;8.33;;;;;;;17.41;82.23;96425.16;4974604;28;20593;-59
2021/09/20 06:24:11;;;;;;;8.90;8.00;;;;;;;17.40;82.76;96421.69;4974507;28;20233;-53
2021/09/20 06:26:37;;;;;;;9.97;8.67;;;;;;;17.52;81.99;96418.00;4974809;28;20197;-59
2021/09/20 06:29:03;;;;;;;10.70;9.60;;;;;;;17.37;82.61;96414.25;4974748;28;20572;-53
2021/09/20 06:31:28;;;;;;;9.83;8.83;;;;;;;17.44;82.45;96420.09;4974705;28;20181;-60
2021/09/20 06:33:53;;;;;;;10.00;9.10;;;;;;;17.48;81.96;96417.75;4974312;28;20174;-53
2021/09/20 06:36:19;;;;;;;10.50;9.40;;;;;;;17.50;82.27;96414.81;4974262;28;20230;-59
2021/09/20 06:38:44;;;;;;;10.27;9.20;;;;;;;17.54;82.23;96415.88;4974303;28;20201;-53
2021/09/20 06:41:09;;;;;;;12.37;9.33;;;;;;;17.50;82.72;96425.44;4974479;28;20268;-60
2021/09/20 06:43:35;;;;;;;10.17;8.70;;;;;;;17.51;83.48;96424.38;4974028;28;20181;-53
2021/09/20 06:46:00;;;;;;;11.17;10.00;;;;;;;17.60;83.35;96420.09;4974442;28;20572;-54
2021/09/20 06:48:26;;;;;;;12.70;10.77;;;;;;;17.61;83.73;96419.81;4974640;28;20629;-60
2021/09/20 06:50:51;;;;;;;10.53;8.77;;;;;;;17.70;83.07;96417.44;4974050;28;20178;-59
2021/09/20 06:53:16;;;;;;;11.30;10.10;;;;;;;17.62;83.73;96424.09;4974069;28;20605;-59
2021/09/20 06:55:42;;;;;;;11.47;10.37;;;;;;;17.54;83.92;96416.66;4974490;28;20197;-53
2021/09/20 06:58:07;;;;;;;11.37;10.13;;;;;;;17.68;82.85;96412.41;4974624;28;20198;-53
2021/09/20 07:00:32;;;;;;;10.20;8.63;;;;;;;17.74;82.78;96416.63;4974428;28;20178;-59
2021/09/20 07:02:58;;;;;;;11.90;10.70;;;;;;;17.74;82.60;96421.94;4974080;28;20692;-59
2021/09/20 07:05:24;;;;;;;10.10;9.13;;;;;;;17.73;83.25;96414.25;4973961;28;20200;-59
2021/09/20 07:07:49;;;;;;;12.03;10.70;;;;;;;17.64;83.97;96415.84;4977343;28;20253;-59
2021/09/20 07:10:16;;;;;;;11.90;10.77;;;;;;;17.61;84.16;96417.16;4978369;28;20529;-60
2021/09/20 07:12:43;;;;;;;12.33;11.03;;;;;;;17.47;85.10;96418.78;4977895;28;20162;-54
2021/09/20 07:15:11;;;;;;;13.57;12.20;;;;;;;17.48;85.27;96420.41;4978030;28;20436;-60
2021/09/20 07:17:37;;;;;;;13.10;11.80;;;;;;;17.51;85.14;96419.84;4978030;28;20526;-53
2021/09/20 07:20:03;;;;;;;13.20;11.80;;;;;;;17.57;85.30;96413.47;4977527;28;20915;-53
2021/09/20 07:22:28;;;;;;;12.77;11.00;;;;;;;17.75;84.81;96417.44;4977870;28;20209;-53
2021/09/20 07:24:54;;;;;;;14.53;12.17;;;;;;;17.77;85.17;96421.41;4977653;28;20276;-59
2021/09/20 07:27:20;;;;;;;14.90;11.70;;;;;;;17.77;85.31;96423.28;4978403;28;20162;-53
2021/09/20 07:29:46;;;;;;;13.03;11.30;;;;;;;17.88;84.86;96422.19;4977820;28;20190;-53
2021/09/20 07:32:11;;;;;;;14.37;12.87;;;;;;;17.90;84.80;96420.84;4977901;28;20491;-53
2021/09/20 07:34:37;;;;;;;13.40;12.00;;;;;;;17.92;84.58;96423.22;4976950;28;20178;-54
2021/09/20 07:37:03;;;;;;;14.40;12.47;;;;;;;17.98;84.41;96430.94;4977445;28;20224;-59
2021/09/20 07:39:28;;;;;;;15.03;13.07;;;;;;;18.11;83.70;96424.25;4976626;28;20488;-60
2021/09/20 07:41:54;;;;;;;14.63;12.70;;;;;;;18.13;83.94;96430.09;4977248;28;20696;-54
2021/09/20 07:44:19;;;;;;;13.70;12.30;;;;;;;18.06;84.62;96429.59;4977241;28;20170;-53
2021/09/20 07:46:44;;;;;;;17.33;13.27;;;;;;;18.11;84.39;96434.88;4977448;28;20556;-59
2021/09/20 07:49:10;;;;;;;13.40;11.23;;;;;;;18.18;83.78;96435.38;4977579;28;20158;-59
2021/09/20 07:51:35;;;;;;;14.30;12.80;;;;;;;18.26;83.94;96440.16;4977588;28;20253;-54
2021/09/20 07:54:02;;;;;;;13.10;11.80;;;;;;;18.23;83.82;96441.50;4976986;28;20708;-53
2021/09/20 07:56:31;;;;;;;13.23;11.70;;;;;;;18.14;83.16;96439.66;4975803;28;20350;-59
2021/09/20 07:58:56;;;;;;;12.00;10.73;;;;;;;18.16;83.48;96446.31;4976048;28;20463;-59
2021/09/20 08:01:22;;;;;;;13.67;12.27;;;;;;;18.01;84.07;96443.69;4977345;28;20420;-59
2021/09/20 08:03:47;;;;;;;15.07;12.60;;;;;;;18.16;83.85;96450.81;4976744;28;20170;-59
2021/09/20 08:06:16;;;;;;;14.10;12.70;;;;;;;18.28;83.30;96449.44;4977105;28;20194;-53
2021/09/20 08:08:42;;;;;;;13.20;11.67;;;;;;;18.31;83.45;96446.25;4977102;28;20177;-53
2021/09/20 08:11:07;;;;;;;14.63;11.80;;;;;;;18.42;83.48;96447.81;4976900;28;20413;-58
2021/09/20 08:13:33;;;;;;;14.73;11.80;;;;;;;18.48;83.37;96456.56;4976561;28;20174;-53
2021/09/20 08:15:59;;;;;;;12.50;11.20;;;;;;;18.51;83.48;96452.59;4977013;28;20194;-60
2021/09/20 08:18:24;;;;;;;12.20;11.00;;;;;;;18.57;83.18;96456.81;4976236;28;20472;-53
2021/09/20 08:20:50;;;;;;;12.33;11.03;;;;;;;18.65;83.15;96458.91;4976796;28;20204;-53
2021/09/20 08:23:16;;;;;;;13.10;11.70;;;;;;;18.73;82.35;96453.81;4975726;28;20636;-59
2021/09/20 08:25:42;;;;;;;12.73;11.43;;;;;;;18.69;82.28;96450.09;4976898;28;20204;-60
2021/09/20 08:28:07;;;;;;;13.63;11.80;;;;;;;18.75;82.28;96453.53;4976811;28;20182;-59
2021/09/20 08:30:33;;;;;;;12.97;11.50;;;;;;;18.73;82.23;96464.47;4976858;28;20409;-59
2021/09/20 08:32:59;;;;;;;14.77;12.90;;;;;;;18.72;81.97;96459.41;4975986;28;20232;-59
2021/09/20 08:35:25;;;;;;;14.03;12.60;;;;;;;18.74;81.42;96466.06;4975357;28;20186;-59
2021/09/20 08:37:51;;;;;;;13.70;12.23;;;;;;;18.77;81.45;96470.81;4976496;28;20509;-60
2021/09/20 08:40:17;;;;;;;15.03;13.50;;;;;;;18.83;81.31;96463.59;4976503;28;20190;-59
2021/09/20 08:42:43;;;;;;;14.03;11.63;;;;;;;18.91;81.00;96469.16;4976237;28;20406;-59
2021/09/20 08:45:11;;;;;;;13.63;12.23;;;;;;;18.87;80.71;96462.00;4976525;28;20917;-60
2021/09/20 08:47:45;;;;;;;15.37;11.70;;;;;;;18.89;81.15;96470.50;4976034;28;20178;-59
2021/09/20 08:50:13;;;;;;;14.57;13.03;;;;;;;18.82;81.55;96470.00;4975123;28;20813;-53
2021/09/20 08:52:39;;;;;;;14.50;13.03;;;;;;;18.87;80.81;96468.13;4976121;28;20472;-54
2021/09/20 08:55:06;;;;;;;16.33;12.63;;;;;;;18.81;81.38;96481.72;4976282;28;20936;-59
2021/09/20 08:57:33;;;;;;;14.20;12.30;;;;;;;18.89;80.58;96481.97;4976354;28;20197;-53
2021/09/20 08:59:58;;;;;;;13.20;11.90;;;;;;;18.87;80.36;96485.97;4976131;28;20497;-55
2021/09/20 09:02:25;;;;;;;14.43;12.17;;;;;;;18.85;80.32;96485.44;4975438;28;20512;-59
2021/09/20 09:04:51;;;;;;;13.87;11.90;;;;;;;18.86;80.28;96487.03;4975886;28;20216;-53
2021/09/20 09:07:19;;;;;;;15.10;12.00;;;;;;;18.84;80.06;96484.63;4976096;28;20948;-60
2021/09/20 09:09:48;;;;;;;15.97;12.03;;;;;;;18.79;80.38;96492.66;4976172;28;20266;-59
2021/09/20 09:12:22;;;;;;;13.43;12.00;;;;;;;18.83;80.42;96487.56;4976063;28;20434;-53
2021/09/20 09:14:49;;;;;;;13.07;11.07;;;;;;;18.79;80.68;96500.63;4975400;28;20428;-59
2021/09/20 09:17:22;;;;;;;14.97;12.93;;;;;;;18.80;81.10;96499.59;4975599;28;21138;-53
2021/09/20 09:19:58;;;;;;;18.73;13.27;;;;;;;18.92;80.50;96500.03;4975623;28;20425;-53
2021/09/20 09:22:36;;;;;;;14.93;12.07;;;;;;;18.95;80.24;96491.50;4975823;28;20892;-53
2021/09/20 09:25:05;;;;;;;12.57;11.37;;;;;;;18.93;80.74;96488.31;4974635;28;20783;-54
2021/09/20 09:27:31;;;;;;;14.60;13.03;;;;;;;18.97;80.70;96496.56;4975861;28;20401;-53
2021/09/20 09:30:03;;;;;;;15.97;13.00;;;;;;;18.97;80.70;96494.69;4974923;28;20418;-59
2021/09/20 09:32:28;;;;;;;15.93;13.60;;;;;;;19.08;80.66;96506.06;4975416;28;20260;-59
2021/09/20 09:34:59;;;;;;;14.47;13.00;;;;;;;19.06;80.71;96497.59;4975246;28;20439;-54
2021/09/20 09:37:25;;;;;;;17.07;13.60;;;;;;;19.04;80.63;96499.72;4975386;28;20572;-60
2021/09/20 09:40:08;;;;;;;20.23;17.77;;;;;;;19.15;80.89;96495.94;4975816;28;20402;-59
2021/09/20 09:42:34;;;;;;;16.50;14.90;;;;;;;19.13;80.56;96495.41;4974170;28;20855;-59
2021/09/20 09:45:20;;;;;;;16.57;13.93;;;;;;;19.14;80.75;96499.66;4974926;28;20536;-53
2021/09/20 09:47:48;;;;;;;14.73;13.13;;;;;;;19.14;80.75;96495.13;4975538;28;20229;-60
2021/09/20 09:50:22;;;;;;;14.87;13.33;;;;;;;19.18;80.09;96495.38;4975424;28;20781;-59
2021/09/20 09:52:51;;;;;;;16.33;13.27;;;;;;;18.99;79.85;96489.88;4974847;28;20413;-59
2021/09/20 09:55:16;;;;;;;15.53;13.83;;;;;;;18.86;80.79;96503.78;4975312;28;20433;-53
2021/09/20 09:57:42;;;;;;;13.80;12.50;;;;;;;18.97;80.75;96499.22;4975240;28;21047;-60
2021/09/20 10:00:11;;;;;;;13.13;11.83;;;;;;;19.03;80.90;96506.91;4974899;28;20178;-54
2021/09/20 10:02:40;;;;;;;18.00;13.60;;;;;;;19.09;80.83;96502.34;4974892;28;20178;-59
2021/09/20 10:05:11;;;;;;;14.23;12.60;;;;;;;19.11;80.41;96505.53;4975153;28;20912;-53
2021/09/20 10:07:39;;;;;;;15.40;13.13;;;;;;;19.14;80.16;96499.66;4975159;28;20464;-60
2021/09/20 10:10:18;;;;;;;14.43;11.97;;;;;;;19.17;79.90;96497.22;4975136;28;20467;-59
2021/09/20 10:12:47;;;;;;;13.70;12.20;;;;;;;19.26;79.53;96500.09;4973543;28;20476;-54
2021/09/20 10:15:15;;;;;;;14.37;12.43;;;;;;;19.33;80.13;96498.75;4974377;28;20445;-54
2021/09/20 10:17:42;;;;;;;15.20;12.97;;;;;;;19.30;79.59;96498.47;4974704;28;20453;-53
2021/09/20 10:20:11;;;;;;;16.60;12.20;;;;;;;19.30;79.23;96501.13;4974851;28;20405;-53
2021/09/20 10:22:37;;;;;;;16.27;13.13;;;;;;;19.29;79.07;96500.38;4974482;28;20414;-54
2021/09/20 10:25:07;;;;;;;15.13;13.63;;;;;;;19.30;79.45;96498.47;4974826;28;20422;-54
2021/09/20 10:27:32;;;;;;;15.63;13.90;;;;;;;19.36;79.67;96508.06;4974733;28;20767;-54
2021/09/20 10:30:12;;;;;;;15.60;12.50;;;;;;;19.39;79.49;96510.97;4974429;28;20417;-53
2021/09/20 10:32:41;;;;;;;21.07;13.93;;;;;;;19.37;79.22;96504.31;4974421;28;20214;-54
2021/09/20 10:35:29;;;;;;;15.13;13.57;;;;;;;19.36;79.03;96500.88;4974619;28;20433;-53
2021/09/20 10:38:01;;;;;;;16.20;12.57;;;;;;;19.31;79.22;96502.78;4974447;28;20461;-59
2021/09/20 10:40:28;;;;;;;16.70;14.97;;;;;;;19.27;78.60;96496.38;4974816;28;20420;-60
2021/09/20 10:43:03;;;;;;;16.97;13.70;;;;;;;19.16;78.50;96495.66;4980133;28;20414;-53
2021/09/20 10:45:40;;;;;;;14.50;13.00;;;;;;;19.18;78.51;96503.34;4980658;28;20450;-53
2021/09/20 10:48:32;;;;;;;14.53;13.03;;;;;;;19.24;78.64;96504.94;4980613;28;20424;-53
2021/09/20 10:51:09;;;;;;;13.97;12.70;;;;;;;19.21;78.41;96510.78;4980989;28;20452;-53
2021/09/20 10:53:34;;;;;;;17.50;13.80;;;;;;;19.28;78.97;96504.09;4980706;28;20485;-53
2021/09/20 10:56:08;;;;;;;15.80;14.17;;;;;;;19.36;79.12;96510.72;4979712;28;20438;-53
2021/09/20 10:58:37;;;;;;;22.93;14.83;;;;;;;19.39;78.90;96502.19;4981041;28;20323;-53
2021/09/20 11:01:12;;;;;;;15.37;13.87;;;;;;;19.31;79.13;96500.88;4980709;28;20533;-59
2021/09/20 11:04:04;;;;;;;17.17;13.67;;;;;;;19.32;78.72;96507.81;4980689;28;20424;-53
2021/09/20 11:06:31;;;;;;;14.63;13.23;;;;;;;19.39;78.41;96500.31;4979661;28;20452;-59
2021/09/20 11:09:16;;;;;;;13.37;12.07;;;;;;;19.41;78.34;96503.50;4980988;28;20495;-54
2021/09/20 11:11:42;;;;;;;14.53;13.03;;;;;;;19.50;78.34;96503.69;4980665;28;20409;-54
2021/09/20 11:14:10;;;;;;;15.00;13.50;;;;;;;19.52;77.97;96501.56;4980421;28;20413;-59
2021/09/20 11:16:59;;;;;;;13.43;12.13;;;;;;;19.50;77.87;96501.03;4980253;28;20959;-59
2021/09/20 11:19:24;;;;;;;15.00;13.50;;;;;;;19.48;79.05;96493.31;4980777;28;20449;-59
2021/09/20 11:22:13;;;;;;;15.40;13.90;;;;;;;19.15;78.58;96502.03;4980831;28;20444;-53
2021/09/20 11:24:40;;;;;;;15.53;14.03;;;;;;;19.30;78.27;96503.81;4975604;28;20187;-53